首页
METAR-TAF:

METAR-TAF

机场 :

瓦加杜古國際機場

瓦加杜古, 布吉納法索

纬度: 12-21N, 经度: 001-31W, 海拔: 316米

当前天气观测

该预报发布于37分钟前的21:00 UTC
风速2节,风向西转西南
温度 32°C
湿度 59%
气压 1010 hPa
能见度10公里或以上
1500米以下无云,无积雨云

METAR: DFFD 232100Z 25002KT CAVOK 32/23 Q1010 NOSIG

时间: 21:37 (21:37 UTC)

预报

该预报发布于4小时和37分钟前的17:00 UTC
预报有效从23日的 18点(UTC)到 24日的 24点(UTC)
风速8节,风向西南
能见度10公里或以上
少量云层高于2600英尺
几率 30% :
短暂存在
从 23日的 18点(UTC)到 24日的 04点(UTC)
能見度: 4000
散云层高于2600英尺
少量云层高于3600英尺, 积雨云.
雷暴, 雨
短暂存在
从 24日的 14点(UTC)到 24日的 22点(UTC)
少量云层高于2600英尺
少量云层高于3600英尺, 积雨云.
雷暴

TAF: DFFD 231700Z 2318/2424 22008KT 9999 FEW026 PROB30 TEMPO 2318/2404 4000 TSRA SCT026 FEW036CB TEMPO 2414/2422 TS FEW026 FEW036CB

超过4000个机场的气象观测和天气预报(METAR&TAF报告)。

可查询的气象台以黄色和红色小点在地图上表示。

将鼠标移到小点上方,可查看气象台名称。

然后点击查看天气观测和预报。

如需切换地图:点击带黑十字的绿色按钮放大地图;点击带横线的绿色按钮缩小地图;或者点击绿色箭头查看邻近地区的地图。


METAR-TAF: